Time;durP1;ratioP1;P1;durP2;ratioP2;P2;SDS_P1;SDS_P2;PMS_P1;PMS_P2;Temp;Humidity;BMP_temperature;BMP_pressure;BME280_temperature;BME280_humidity;BME280_pressure;Samples;Min_cycle;Max_cycle;Signal;HPM_P1;HPM_P2
2021/08/22 04:01:27;;;;;;;2.43;2.43;;;17.10;99.90;;;;;;5445358;23;20516;-69
2021/08/22 04:03:53;;;;;;;2.83;2.73;;;17.00;99.90;;;;;;4935965;29;20454;-68
2021/08/22 04:06:20;;;;;;;3.40;3.10;;;17.00;99.90;;;;;;4934540;29;20485;-70
2021/08/22 04:08:47;;;;;;;2.60;2.60;;;17.00;99.90;;;;;;4917774;29;20463;-71
2021/08/22 04:11:13;;;;;;;2.33;2.30;;;17.00;99.90;;;;;;4933648;29;20489;-71
2021/08/22 04:13:40;;;;;;;3.17;3.07;;;17.00;99.90;;;;;;4935736;29;20529;-71
2021/08/22 04:16:07;;;;;;;2.77;2.67;;;17.00;99.90;;;;;;4935274;29;20486;-71
2021/08/22 04:18:35;;;;;;;2.73;2.53;;;17.00;99.90;;;;;;4919251;29;20577;-69
2021/08/22 04:21:01;;;;;;;3.20;2.43;;;17.00;99.90;;;;;;4931381;29;20490;-69
2021/08/22 04:23:28;;;;;;;2.77;2.67;;;17.00;99.90;;;;;;4919607;29;21026;-69
2021/08/22 04:25:55;;;;;;;2.20;2.20;;;17.00;99.90;;;;;;4929650;29;20474;-69
2021/08/22 04:28:22;;;;;;;2.70;2.70;;;17.00;99.90;;;;;;4934889;29;20516;-68
2021/08/22 04:30:49;;;;;;;2.50;2.50;;;17.00;99.90;;;;;;4934677;29;20485;-68
2021/08/22 04:33:15;;;;;;;2.77;2.67;;;17.00;99.90;;;;;;4924717;29;20483;-68
2021/08/22 04:35:43;;;;;;;2.70;2.70;;;17.00;99.90;;;;;;4935763;29;20934;-68
2021/08/22 04:38:10;;;;;;;2.77;2.70;;;17.00;99.90;;;;;;4934435;29;20504;-68
2021/08/22 04:40:38;;;;;;;2.90;2.80;;;17.00;99.90;;;;;;4934968;29;20997;-68
2021/08/22 04:43:05;;;;;;;2.70;2.70;;;17.00;99.90;;;;;;4924249;29;20558;-69
2021/08/22 04:45:32;;;;;;;3.13;2.83;;;17.00;99.90;;;;;;4934680;29;20505;-68
2021/08/22 04:47:59;;;;;;;3.73;3.63;;;17.00;99.90;;;;;;4925441;29;20959;-68
2021/08/22 04:50:25;;;;;;;2.90;2.70;;;17.00;99.90;;;;;;4933822;29;20473;-71
2021/08/22 04:52:53;;;;;;;2.40;2.40;;;17.10;99.90;;;;;;4935511;29;20481;-68
2021/08/22 04:55:20;;;;;;;2.83;2.63;;;17.10;99.90;;;;;;4942875;29;20547;-71
2021/08/22 04:57:47;;;;;;;2.93;2.83;;;17.10;99.90;;;;;;4952707;29;20515;-71
2021/08/22 05:00:15;;;;;;;3.33;3.13;;;17.10;99.90;;;;;;4951511;29;20466;-70
2021/08/22 05:02:41;;;;;;;3.10;3.07;;;17.10;99.90;;;;;;4953065;29;20465;-71
2021/08/22 05:05:09;;;;;;;3.07;2.63;;;17.10;99.90;;;;;;4938529;29;20465;-70
2021/08/22 05:07:36;;;;;;;2.87;2.67;;;17.10;99.90;;;;;;4931243;29;20865;-69
2021/08/22 05:10:04;;;;;;;3.70;3.60;;;17.20;99.90;;;;;;4932548;29;20970;-69
2021/08/22 05:12:31;;;;;;;2.53;2.43;;;17.20;99.90;;;;;;4918698;29;20462;-69
2021/08/22 05:14:57;;;;;;;2.47;2.47;;;17.20;99.90;;;;;;4933990;29;20457;-69
2021/08/22 05:17:24;;;;;;;3.23;2.93;;;17.20;99.90;;;;;;4933066;29;20481;-69
2021/08/22 05:19:51;;;;;;;2.70;2.60;;;17.20;99.90;;;;;;4934448;29;20466;-69
2021/08/22 05:22:17;;;;;;;2.70;2.60;;;17.30;99.90;;;;;;4934607;29;20576;-68
2021/08/22 05:24:44;;;;;;;2.90;2.80;;;17.30;99.90;;;;;;4934378;29;20493;-68
2021/08/22 05:27:12;;;;;;;2.67;2.67;;;17.30;99.90;;;;;;4933905;29;20799;-68
2021/08/22 05:29:39;;;;;;;2.67;2.67;;;17.40;99.90;;;;;;4934567;29;20473;-69
2021/08/22 05:32:06;;;;;;;2.73;2.63;;;17.40;99.90;;;;;;4933508;29;20501;-68
2021/08/22 05:34:33;;;;;;;2.90;2.90;;;17.40;99.90;;;;;;4935203;29;20458;-68
2021/08/22 05:37:00;;;;;;;3.07;2.83;;;17.40;99.90;;;;;;4934082;29;20485;-67
2021/08/22 05:39:26;;;;;;;2.83;2.70;;;17.50;99.90;;;;;;4935136;29;20477;-68
2021/08/22 05:41:53;;;;;;;2.57;2.50;;;17.50;99.90;;;;;;4933296;29;21041;-68
2021/08/22 05:44:21;;;;;;;2.90;2.80;;;17.50;99.90;;;;;;4934309;29;20529;-68
2021/08/22 05:46:48;;;;;;;2.83;2.73;;;17.60;99.90;;;;;;4932826;29;20544;-68
2021/08/22 05:49:14;;;;;;;3.00;2.90;;;17.60;99.90;;;;;;4935268;29;20472;-68
2021/08/22 05:51:43;;;;;;;3.17;3.07;;;17.60;99.90;;;;;;4933757;29;20489;-68
2021/08/22 05:54:09;;;;;;;3.00;2.80;;;17.70;99.90;;;;;;4932914;29;20465;-68
2021/08/22 05:56:36;;;;;;;2.53;2.43;;;17.70;99.90;;;;;;4931624;29;20541;-68
2021/08/22 05:59:03;;;;;;;2.43;2.43;;;17.70;99.90;;;;;;4927582;29;20811;-68
2021/08/22 06:01:31;;;;;;;2.80;2.70;;;17.70;99.90;;;;;;4932272;29;20500;-68
2021/08/22 06:03:57;;;;;;;3.10;3.00;;;17.70;99.90;;;;;;4930647;29;20509;-68
2021/08/22 06:06:24;;;;;;;3.20;2.90;;;17.70;99.90;;;;;;4934493;29;20458;-68
2021/08/22 06:08:51;;;;;;;2.90;2.80;;;17.70;99.90;;;;;;4934020;29;20472;-69
2021/08/22 06:11:17;;;;;;;3.10;3.00;;;17.70;99.90;;;;;;4933346;29;20584;-68
2021/08/22 06:13:44;;;;;;;2.77;2.67;;;17.70;99.90;;;;;;4932524;29;20502;-68
2021/08/22 06:16:11;;;;;;;2.60;2.60;;;17.70;99.90;;;;;;4928381;29;20478;-68
2021/08/22 06:18:39;;;;;;;3.27;3.07;;;17.70;99.90;;;;;;4934163;29;20512;-68
2021/08/22 06:21:05;;;;;;;3.40;3.30;;;17.70;99.90;;;;;;4928119;29;20501;-68
2021/08/22 06:23:32;;;;;;;3.90;3.50;;;17.70;99.90;;;;;;4930968;29;20493;-67
2021/08/22 06:25:59;;;;;;;3.00;2.90;;;17.70;99.90;;;;;;4934673;29;20466;-68
2021/08/22 06:28:25;;;;;;;3.00;2.73;;;17.80;99.90;;;;;;4929621;29;20537;-68
2021/08/22 06:30:52;;;;;;;3.20;3.00;;;17.90;99.90;;;;;;4932494;29;20553;-68
2021/08/22 06:33:18;;;;;;;2.73;2.73;;;17.90;99.90;;;;;;4929936;29;20466;-68
2021/08/22 06:35:46;;;;;;;2.57;2.47;;;17.90;99.90;;;;;;4926803;29;20520;-68
2021/08/22 06:38:13;;;;;;;3.00;2.67;;;18.00;99.90;;;;;;4931714;29;20839;-69
2021/08/22 06:40:40;;;;;;;2.27;2.27;;;18.00;99.90;;;;;;4936874;29;21064;-69
2021/08/22 06:43:06;;;;;;;3.00;2.90;;;18.00;99.90;;;;;;4930787;29;20500;-68
2021/08/22 06:45:33;;;;;;;3.23;3.03;;;18.00;99.90;;;;;;4937686;29;20461;-69
2021/08/22 06:48:00;;;;;;;3.07;2.97;;;18.00;99.90;;;;;;4936887;29;20464;-69
2021/08/22 06:50:26;;;;;;;3.60;3.50;;;18.00;99.90;;;;;;4920417;29;20478;-69
2021/08/22 06:52:54;;;;;;;3.03;2.93;;;18.00;99.90;;;;;;4937690;29;20268;-70
2021/08/22 06:55:21;;;;;;;6.10;3.00;;;18.00;99.90;;;;;;4936417;29;20512;-69
2021/08/22 06:57:48;;;;;;;3.43;3.23;;;18.00;99.90;;;;;;4937733;29;20611;-70
2021/08/22 07:00:17;;;;;;;2.80;2.80;;;18.00;99.90;;;;;;4936441;29;20842;-70
2021/08/22 07:02:44;;;;;;;2.90;2.80;;;18.00;99.90;;;;;;4926143;29;20462;-70
2021/08/22 07:05:12;;;;;;;3.30;3.20;;;18.10;99.90;;;;;;4937529;29;20552;-70
2021/08/22 07:07:38;;;;;;;3.13;3.10;;;18.10;99.90;;;;;;4935550;29;20485;-70
2021/08/22 07:10:08;;;;;;;2.90;2.70;;;18.10;99.90;;;;;;4920596;29;20892;-69
2021/08/22 07:12:35;;;;;;;2.40;2.40;;;18.20;99.90;;;;;;4933893;29;20608;-70
2021/08/22 07:15:02;;;;;;;2.90;2.80;;;18.20;99.90;;;;;;4937560;29;20461;-69
2021/08/22 07:17:28;;;;;;;3.30;3.20;;;18.10;99.90;;;;;;4935682;29;20489;-71
2021/08/22 07:19:55;;;;;;;3.20;3.10;;;18.20;99.90;;;;;;4927605;29;20465;-67
2021/08/22 07:22:22;;;;;;;3.33;3.13;;;18.20;99.90;;;;;;4929459;29;20537;-68
2021/08/22 07:24:49;;;;;;;3.00;2.90;;;18.30;99.90;;;;;;4937371;29;20469;-68
2021/08/22 07:27:17;;;;;;;3.40;3.10;;;18.40;99.90;;;;;;4929508;29;20514;-67
2021/08/22 07:29:44;;;;;;;3.10;2.90;;;18.50;99.90;;;;;;4929488;29;20554;-67
2021/08/22 07:32:11;;;;;;;2.80;2.70;;;18.50;99.90;;;;;;4917273;29;20498;-68
2021/08/22 07:34:38;;;;;;;2.93;2.73;;;18.50;99.90;;;;;;4931075;29;20885;-67
2021/08/22 07:37:05;;;;;;;3.03;2.97;;;18.60;99.90;;;;;;4925178;29;20473;-67
2021/08/22 07:39:32;;;;;;;4.00;3.03;;;18.50;99.90;;;;;;4937074;29;20846;-67
2021/08/22 07:41:58;;;;;;;3.23;2.97;;;18.50;99.90;;;;;;4931895;29;20592;-68
2021/08/22 07:44:26;;;;;;;2.77;2.67;;;18.50;99.90;;;;;;4935241;29;20470;-67
2021/08/22 07:46:53;;;;;;;2.70;2.70;;;18.60;99.90;;;;;;4923040;29;20481;-68
2021/08/22 07:49:19;;;;;;;3.70;2.60;;;18.60;99.90;;;;;;4930553;29;20462;-67
2021/08/22 07:51:47;;;;;;;3.00;2.90;;;18.60;99.90;;;;;;4929005;29;20486;-68
2021/08/22 07:54:14;;;;;;;2.80;2.60;;;18.60;99.90;;;;;;4930862;29;20561;-68
2021/08/22 07:56:41;;;;;;;3.07;2.97;;;18.70;99.90;;;;;;4933095;29;20524;-67
2021/08/22 07:59:08;;;;;;;3.40;3.20;;;18.70;99.90;;;;;;4926071;29;20486;-68
2021/08/22 08:01:36;;;;;;;2.97;2.87;;;18.70;99.90;;;;;;4920725;29;20498;-67
2021/08/22 08:04:03;;;;;;;3.00;2.90;;;18.70;99.90;;;;;;4918131;29;20526;-68
2021/08/22 08:06:30;;;;;;;2.57;2.57;;;18.80;99.90;;;;;;4932184;29;20823;-68
2021/08/22 08:08:58;;;;;;;2.30;2.30;;;18.80;99.90;;;;;;4935244;29;20989;-68
2021/08/22 08:11:24;;;;;;;3.13;3.03;;;18.70;99.90;;;;;;4922502;29;20482;-67
2021/08/22 08:13:51;;;;;;;3.30;3.10;;;18.80;99.90;;;;;;4936044;29;20462;-67
2021/08/22 08:16:18;;;;;;;2.97;2.97;;;18.80;99.90;;;;;;4919739;29;20463;-68
2021/08/22 08:18:46;;;;;;;2.40;2.30;;;18.80;99.90;;;;;;4927942;29;20490;-67
2021/08/22 08:21:12;;;;;;;2.47;2.37;;;18.90;99.90;;;;;;4919165;29;20490;-67
2021/08/22 08:23:39;;;;;;;2.90;2.83;;;18.80;99.90;;;;;;4922712;29;20814;-67
2021/08/22 08:26:06;;;;;;;2.50;2.40;;;18.80;99.90;;;;;;4917602;29;20529;-68
2021/08/22 08:28:33;;;;;;;2.80;2.80;;;18.80;99.90;;;;;;4933742;29;20536;-67
2021/08/22 08:30:59;;;;;;;3.00;3.00;;;18.70;99.90;;;;;;4919279;29;21002;-68
2021/08/22 08:33:26;;;;;;;2.60;2.50;;;18.70;99.90;;;;;;4935689;29;20520;-68
2021/08/22 08:35:54;;;;;;;2.53;2.50;;;18.60;99.90;;;;;;4934874;29;20470;-68
2021/08/22 08:38:21;;;;;;;2.50;2.50;;;18.50;99.90;;;;;;4924154;29;20565;-67
2021/08/22 08:40:48;;;;;;;3.40;3.20;;;18.50;99.90;;;;;;4936191;29;20482;-67
2021/08/22 08:43:15;;;;;;;3.63;3.43;;;18.50;99.90;;;;;;4940424;29;20461;-67
2021/08/22 08:45:48;;;;;;;3.17;3.07;;;18.60;99.90;;;;;;4934532;29;20468;-68
2021/08/22 08:48:18;;;;;;;3.00;2.90;;;18.50;99.90;;;;;;4933403;29;20489;-67
2021/08/22 08:50:48;;;;;;;3.10;3.00;;;18.40;99.90;;;;;;4933923;29;20572;-67
2021/08/22 08:53:17;;;;;;;3.13;3.03;;;18.30;99.90;;;;;;4934606;29;20466;-67
2021/08/22 08:55:43;;;;;;;3.80;3.60;;;18.20;99.90;;;;;;4934210;29;20536;-67
2021/08/22 08:58:10;;;;;;;3.70;3.60;;;18.10;99.90;;;;;;4922169;29;20537;-67
2021/08/22 09:00:37;;;;;;;4.40;4.00;;;18.00;99.90;;;;;;4932699;29;20509;-66
2021/08/22 09:03:04;;;;;;;3.00;3.00;;;17.80;99.90;;;;;;4933499;29;21050;-67
2021/08/22 09:06:15;;;;;;;5.50;4.00;;;17.50;99.90;;;;;;4933600;29;20513;-67
2021/08/22 09:09:19;;;;;;;3.60;3.50;;;17.40;99.90;;;;;;4935262;29;20462;-70
2021/08/22 09:12:19;;;;;;;5.13;4.63;;;17.30;99.90;;;;;;4932499;29;20473;-70
2021/08/22 09:15:23;;;;;;;4.47;4.13;;;17.20;99.90;;;;;;4931457;29;20469;-70
2021/08/22 09:18:30;;;;;;;4.00;3.80;;;17.00;99.90;;;;;;4933950;29;20485;-70
2021/08/22 09:21:34;;;;;;;4.43;4.23;;;16.90;99.90;;;;;;4917875;29;20488;-70
2021/08/22 09:24:34;;;;;;;4.47;4.17;;;16.90;99.90;;;;;;4918320;29;20528;-72
2021/08/22 09:27:42;;;;;;;4.67;4.37;;;17.00;99.90;;;;;;4929165;29;20477;-71
2021/08/22 09:30:46;;;;;;;6.50;5.40;;;17.00;99.90;;;;;;4933844;29;20458;-70
2021/08/22 09:33:49;;;;;;;5.47;4.80;;;16.80;99.90;;;;;;4932709;29;20474;-70
2021/08/22 09:36:52;;;;;;;4.90;4.67;;;16.70;99.90;;;;;;4915525;29;20474;-70
2021/08/22 09:40:01;;;;;;;5.10;4.80;;;16.60;99.90;;;;;;4915300;29;20994;-70
2021/08/22 09:43:25;;;;;;;4.83;4.53;;;16.60;99.90;;;;;;4918017;29;20481;-69
2021/08/22 09:46:19;;;;;;;5.00;4.70;;;16.50;99.90;;;;;;4887106;29;20521;-70
2021/08/22 09:49:29;;;;;;;4.93;4.63;;;16.50;99.90;;;;;;4933725;29;20458;-70
2021/08/22 09:52:39;;;;;;;5.73;5.23;;;16.50;99.90;;;;;;4933708;29;20485;-70
2021/08/22 09:55:51;;;;;;;5.67;5.17;;;16.50;99.90;;;;;;4925618;29;20461;-70
2021/08/22 09:58:50;;;;;;;5.37;4.87;;;16.50;99.90;;;;;;4929277;29;20569;-70
2021/08/22 10:01:39;;;;;;;4.80;4.60;;;16.50;99.90;;;;;;4919342;29;20516;-70
2021/08/22 10:04:41;;;;;;;6.07;5.53;;;16.50;99.90;;;;;;4915088;29;20482;-69
2021/08/22 10:07:19;;;;;;;5.37;5.07;;;16.50;99.90;;;;;;4932391;29;20465;-69
2021/08/22 10:09:50;;;;;;;5.97;5.37;;;16.50;99.90;;;;;;4935269;29;20846;-69
2021/08/22 10:12:17;;;;;;;5.97;5.57;;;16.60;99.90;;;;;;4937412;29;20489;-70
2021/08/22 10:14:45;;;;;;;6.10;5.73;;;16.70;99.90;;;;;;4937740;29;20826;-70
2021/08/22 10:17:18;;;;;;;7.93;5.13;;;16.80;99.90;;;;;;4937326;29;20461;-70
2021/08/22 10:19:46;;;;;;;5.40;5.00;;;16.90;99.90;;;;;;4938314;29;20592;-70
2021/08/22 10:22:13;;;;;;;4.83;4.63;;;16.90;99.90;;;;;;4937510;29;21030;-70
2021/08/22 10:24:44;;;;;;;5.50;4.93;;;16.80;99.90;;;;;;4937988;29;20474;-70
2021/08/22 10:27:12;;;;;;;6.10;5.60;;;16.70;99.90;;;;;;4937357;29;20798;-70
2021/08/22 10:30:11;;;;;;;5.37;5.07;;;16.60;99.90;;;;;;4931762;29;20504;-69
2021/08/22 10:33:12;;;;;;;5.27;4.87;;;16.60;99.90;;;;;;4918853;29;20470;-70
2021/08/22 10:35:40;;;;;;;5.83;5.50;;;16.50;99.90;;;;;;4918388;29;20632;-70
2021/08/22 10:38:21;;;;;;;5.80;5.30;;;16.40;99.90;;;;;;4918161;29;20902;-70
2021/08/22 10:40:48;;;;;;;4.50;4.30;;;16.40;99.90;;;;;;4917965;29;20493;-70
2021/08/22 10:43:35;;;;;;;5.37;5.07;;;16.40;99.90;;;;;;4918523;29;20621;-70
2021/08/22 10:46:04;;;;;;;5.70;5.30;;;16.40;99.90;;;;;;4917799;29;20486;-70
2021/08/22 10:48:51;;;;;;;5.90;5.40;;;16.40;99.90;;;;;;4918438;29;20554;-69
2021/08/22 10:51:18;;;;;;;5.47;5.07;;;16.50;99.90;;;;;;4918049;29;20566;-70
2021/08/22 10:53:47;;;;;;;5.97;5.40;;;16.50;99.90;;;;;;4918385;29;20956;-70
2021/08/22 10:56:39;;;;;;;6.00;5.60;;;16.60;99.90;;;;;;4917827;29;20472;-70
2021/08/22 10:59:08;;;;;;;5.90;5.50;;;16.60;99.90;;;;;;4917664;29;20499;-70
2021/08/22 11:01:37;;;;;;;4.97;4.67;;;16.60;99.90;;;;;;4917110;29;20951;-69
2021/08/22 11:04:06;;;;;;;7.23;6.73;;;16.60;99.90;;;;;;4917731;29;20470;-69
2021/08/22 11:06:34;;;;;;;6.60;6.20;;;16.60;99.90;;;;;;4918135;29;20466;-70
2021/08/22 11:09:01;;;;;;;6.97;6.43;;;16.60;99.90;;;;;;4918482;29;20485;-69
2021/08/22 11:11:27;;;;;;;6.37;5.87;;;16.60;99.90;;;;;;4917186;29;20897;-69
2021/08/22 11:13:56;;;;;;;6.93;6.40;;;16.70;99.90;;;;;;4918106;29;20474;-69
2021/08/22 11:16:40;;;;;;;7.27;6.67;;;16.60;99.90;;;;;;4917446;29;20474;-69
2021/08/22 11:19:07;;;;;;;5.90;5.50;;;16.60;99.90;;;;;;4918084;29;20498;-69
2021/08/22 11:21:35;;;;;;;6.20;5.60;;;16.60;99.90;;;;;;4917143;29;20509;-69
2021/08/22 11:24:02;;;;;;;5.27;5.00;;;16.60;99.90;;;;;;4917413;29;20467;-69
2021/08/22 11:26:30;;;;;;;5.53;5.13;;;16.50;99.90;;;;;;4917489;29;20474;-69
2021/08/22 11:28:57;;;;;;;5.63;5.23;;;16.40;99.90;;;;;;4917911;29;20594;-69
2021/08/22 11:31:27;;;;;;;5.77;5.37;;;16.30;99.90;;;;;;4917284;29;20490;-68
2021/08/22 11:33:55;;;;;;;6.60;6.10;;;16.30;99.90;;;;;;4917338;29;20470;-70
2021/08/22 11:36:27;;;;;;;6.63;6.10;;;16.30;99.90;;;;;;4916973;29;20466;-71
2021/08/22 11:39:10;;;;;;;5.63;5.23;;;16.30;99.90;;;;;;4916982;29;20490;-72
2021/08/22 11:41:38;;;;;;;5.83;5.43;;;16.30;99.90;;;;;;4916633;29;20537;-71
2021/08/22 11:44:06;;;;;;;5.70;5.40;;;16.20;99.90;;;;;;4917155;29;20557;-72
2021/08/22 11:46:33;;;;;;;6.93;6.43;;;16.20;99.90;;;;;;4916405;29;20569;-71
2021/08/22 11:49:02;;;;;;;6.77;6.27;;;16.10;99.90;;;;;;4916672;29;20863;-71
2021/08/22 11:51:29;;;;;;;7.47;6.87;;;16.10;99.90;;;;;;4916596;29;20490;-71
2021/08/22 11:53:56;;;;;;;7.20;6.70;;;16.10;99.90;;;;;;4917013;29;20473;-71
2021/08/22 11:56:23;;;;;;;7.57;6.97;;;16.20;99.90;;;;;;4916279;29;20545;-71
2021/08/22 11:58:50;;;;;;;8.20;7.33;;;16.20;99.90;;;;;;4916747;29;20581;-71
2021/08/22 12:01:18;;;;;;;7.10;6.67;;;16.20;99.90;;;;;;4915816;29;20495;-71
2021/08/22 12:03:57;;;;;;;7.77;7.17;;;16.20;99.90;;;;;;4916276;29;20470;-71
2021/08/22 12:06:26;;;;;;;6.50;5.90;;;16.30;99.90;;;;;;4916415;29;20545;-71
2021/08/22 12:08:52;;;;;;;6.50;6.00;;;16.30;99.90;;;;;;4916604;29;20466;-71
2021/08/22 12:11:23;;;;;;;7.00;6.50;;;16.30;99.90;;;;;;4915988;29;20494;-71
2021/08/22 12:13:50;;;;;;;8.60;7.80;;;16.40;99.90;;;;;;4916271;29;20470;-71
2021/08/22 12:16:25;;;;;;;7.40;6.80;;;16.40;99.90;;;;;;4916026;29;20538;-71
2021/08/22 12:18:52;;;;;;;6.40;5.90;;;16.40;99.90;;;;;;4916547;29;20900;-71
2021/08/22 12:21:21;;;;;;;7.40;6.90;;;16.40;99.90;;;;;;4916205;29;20531;-71
2021/08/22 12:23:51;;;;;;;6.10;5.50;;;16.40;99.90;;;;;;4916055;29;20466;-70
2021/08/22 12:26:24;;;;;;;6.93;6.50;;;16.40;99.90;;;;;;4915604;29;20968;-71
2021/08/22 12:28:52;;;;;;;6.27;5.73;;;16.30;99.90;;;;;;4916321;29;20470;-70
2021/08/22 12:31:20;;;;;;;5.70;5.30;;;16.30;99.90;;;;;;4920014;29;21022;-69
2021/08/22 12:33:54;;;;;;;7.20;6.70;;;16.30;99.90;;;;;;4915108;29;20545;-68
2021/08/22 12:36:31;;;;;;;7.87;7.10;;;16.30;99.90;;;;;;4916099;29;20557;-68
2021/08/22 12:39:00;;;;;;;7.07;6.50;;;16.40;99.90;;;;;;4915921;29;20494;-69
2021/08/22 12:41:43;;;;;;;7.37;6.77;;;16.40;99.90;;;;;;4915703;29;20486;-69
2021/08/22 12:44:11;;;;;;;8.20;7.30;;;16.40;99.90;;;;;;4916030;29;20483;-68
2021/08/22 12:46:39;;;;;;;8.20;7.63;;;16.40;99.90;;;;;;4915743;29;20553;-69
2021/08/22 12:49:07;;;;;;;8.60;8.00;;;16.40;99.90;;;;;;4916028;29;20620;-69
2021/08/22 12:51:36;;;;;;;7.73;7.13;;;16.50;99.90;;;;;;4915869;29;20517;-69
2021/08/22 12:54:06;;;;;;;7.17;6.50;;;16.50;99.90;;;;;;4915933;29;20525;-69
2021/08/22 12:56:32;;;;;;;7.67;7.10;;;16.50;99.90;;;;;;4915438;29;20490;-69
2021/08/22 12:58:59;;;;;;;8.00;7.50;;;16.60;99.90;;;;;;4915802;29;20880;-69
2021/08/22 13:01:27;;;;;;;7.23;6.73;;;16.60;99.90;;;;;;4914867;29;20494;-70
2021/08/22 13:03:55;;;;;;;7.13;6.63;;;16.60;99.90;;;;;;4915333;29;20573;-69
2021/08/22 13:06:22;;;;;;;8.47;7.80;;;16.70;99.90;;;;;;4915872;29;20489;-69
2021/08/22 13:08:49;;;;;;;6.30;5.80;;;16.70;99.90;;;;;;4915893;29;20530;-69
2021/08/22 13:11:18;;;;;;;6.93;6.43;;;16.70;99.90;;;;;;4915596;29;20618;-69
2021/08/22 13:13:45;;;;;;;7.40;6.90;;;16.70;99.90;;;;;;4915328;29;20979;-70
2021/08/22 13:16:11;;;;;;;8.70;6.77;;;16.70;99.90;;;;;;4914938;29;20463;-70
2021/08/22 13:18:38;;;;;;;6.20;5.80;;;16.70;99.90;;;;;;4915204;29;20959;-71
2021/08/22 13:21:10;;;;;;;6.70;6.30;;;16.70;99.90;;;;;;4915304;29;20800;-70
2021/08/22 13:23:39;;;;;;;6.60;6.03;;;16.60;99.90;;;;;;4915651;29;20518;-70
2021/08/22 13:26:07;;;;;;;8.37;6.63;;;16.70;99.90;;;;;;4915039;29;20954;-70
2021/08/22 13:28:35;;;;;;;8.90;8.10;;;16.60;99.90;;;;;;4915824;29;20526;-71
2021/08/22 13:31:02;;;;;;;6.80;6.23;;;16.60;99.90;;;;;;4914785;29;20537;-71
2021/08/22 13:33:29;;;;;;;6.93;6.43;;;16.60;99.90;;;;;;4915362;29;20833;-70
2021/08/22 13:35:56;;;;;;;6.60;6.00;;;16.60;99.90;;;;;;4915422;29;20478;-70
2021/08/22 13:38:23;;;;;;;7.10;6.50;;;16.70;99.90;;;;;;4915153;29;20537;-70
2021/08/22 13:40:50;;;;;;;7.30;6.80;;;16.70;99.90;;;;;;4914532;29;20494;-69
2021/08/22 13:43:17;;;;;;;7.10;6.60;;;16.70;99.90;;;;;;4914895;29;20470;-69
2021/08/22 13:45:45;;;;;;;6.13;5.73;;;16.70;99.90;;;;;;4918452;29;20474;-69
2021/08/22 13:48:12;;;;;;;7.47;6.77;;;16.70;99.90;;;;;;4918999;29;20586;-68
2021/08/22 13:50:38;;;;;;;6.13;5.47;;;16.70;99.90;;;;;;4918910;29;20486;-69
2021/08/22 13:53:06;;;;;;;6.50;6.00;;;16.60;99.90;;;;;;4919014;29;20479;-68
2021/08/22 13:55:33;;;;;;;6.13;5.53;;;16.60;99.90;;;;;;4918480;29;20470;-69
2021/08/22 13:58:00;;;;;;;6.10;5.70;;;16.60;99.90;;;;;;4918873;29;20529;-69
2021/08/22 14:00:27;;;;;;;5.70;5.40;;;16.60;99.90;;;;;;4917841;29;20495;-69
2021/08/22 14:02:56;;;;;;;6.20;5.80;;;16.60;99.90;;;;;;4918884;29;20470;-69
2021/08/22 14:05:23;;;;;;;6.30;5.70;;;16.60;99.90;;;;;;4918787;29;20474;-70
2021/08/22 14:07:51;;;;;;;7.03;6.43;;;16.50;99.90;;;;;;4919114;29;20889;-69
2021/08/22 14:10:18;;;;;;;7.70;7.00;;;16.50;99.90;;;;;;4918069;29;20545;-70
2021/08/22 14:12:45;;;;;;;6.40;6.00;;;16.50;99.90;;;;;;4918577;29;20471;-70
2021/08/22 14:15:13;;;;;;;6.57;6.17;;;16.50;99.90;;;;;;4918340;29;20846;-70
2021/08/22 14:17:40;;;;;;;7.40;6.80;;;16.60;99.90;;;;;;4918731;29;20485;-68
2021/08/22 14:20:09;;;;;;;5.50;5.20;;;16.60;99.90;;;;;;4918445;29;20549;-70
2021/08/22 14:22:37;;;;;;;6.47;5.87;;;16.60;99.90;;;;;;4918449;29;20581;-69
2021/08/22 14:25:05;;;;;;;4.90;4.70;;;16.60;99.90;;;;;;4918056;29;20557;-70
2021/08/22 14:27:32;;;;;;;6.40;6.00;;;16.60;99.90;;;;;;4918686;29;20535;-69
2021/08/22 14:29:58;;;;;;;6.23;5.87;;;16.70;99.90;;;;;;4917948;29;20483;-70
2021/08/22 14:32:25;;;;;;;6.10;5.63;;;16.60;99.90;;;;;;4918501;29;20498;-70
2021/08/22 14:34:51;;;;;;;7.07;6.47;;;16.70;99.90;;;;;;4918450;29;20470;-70
2021/08/22 14:37:19;;;;;;;6.10;5.73;;;16.70;99.90;;;;;;4918424;29;20545;-69
2021/08/22 14:39:46;;;;;;;6.53;6.03;;;16.70;99.90;;;;;;4917918;29;21042;-69
2021/08/22 14:42:13;;;;;;;5.90;5.50;;;16.60;99.90;;;;;;4917705;29;20497;-69
2021/08/22 14:44:39;;;;;;;6.60;6.00;;;16.70;99.90;;;;;;4918225;29;20478;-71
2021/08/22 14:47:06;;;;;;;7.20;6.70;;;16.80;99.90;;;;;;4918475;29;20542;-71
2021/08/22 14:49:33;;;;;;;6.23;5.73;;;16.90;99.90;;;;;;4919044;29;20834;-71
2021/08/22 14:52:00;;;;;;;5.50;5.03;;;16.90;99.90;;;;;;4917784;29;20517;-70
2021/08/22 14:54:28;;;;;;;5.23;4.83;;;16.90;99.90;;;;;;4918077;29;20549;-70
2021/08/22 14:56:54;;;;;;;5.20;4.90;;;16.90;99.90;;;;;;4916639;29;20470;-70
2021/08/22 14:59:21;;;;;;;5.67;5.27;;;16.90;99.90;;;;;;4918018;29;20493;-70
2021/08/22 15:01:48;;;;;;;5.23;4.83;;;16.80;99.90;;;;;;4917193;29;20497;-70
2021/08/22 15:04:14;;;;;;;5.80;5.40;;;16.90;99.90;;;;;;4917871;29;20474;-70
2021/08/22 15:06:41;;;;;;;5.90;5.50;;;16.80;99.90;;;;;;4917653;29;20473;-70
2021/08/22 15:09:07;;;;;;;5.87;5.53;;;16.80;99.90;;;;;;4917703;29;20467;-70
2021/08/22 15:11:35;;;;;;;5.67;5.37;;;16.80;99.90;;;;;;4916959;29;20490;-70
2021/08/22 15:14:03;;;;;;;6.00;5.60;;;16.80;99.90;;;;;;4917512;29;20467;-70
2021/08/22 15:16:30;;;;;;;5.70;5.40;;;16.80;99.90;;;;;;4917280;29;20470;-70
2021/08/22 15:18:58;;;;;;;8.17;5.70;;;16.80;99.90;;;;;;4917758;29;20470;-70
2021/08/22 15:21:25;;;;;;;6.10;5.70;;;16.80;99.90;;;;;;4917413;29;20834;-70
2021/08/22 15:23:52;;;;;;;6.03;5.63;;;16.90;99.90;;;;;;4917602;29;20533;-70
2021/08/22 15:26:18;;;;;;;6.27;5.80;;;17.00;99.90;;;;;;4917080;29;20466;-70
2021/08/22 15:28:47;;;;;;;5.40;5.00;;;17.00;99.90;;;;;;4918211;29;20752;-70
2021/08/22 15:31:13;;;;;;;5.83;5.43;;;17.00;99.90;;;;;;4916701;29;20486;-70
2021/08/22 15:33:40;;;;;;;5.97;5.57;;;17.10;99.90;;;;;;4917154;29;20494;-70
2021/08/22 15:36:07;;;;;;;5.23;4.83;;;17.10;99.90;;;;;;4916960;29;21026;-69
2021/08/22 15:38:33;;;;;;;6.30;5.80;;;17.10;99.90;;;;;;4917205;29;21021;-70
2021/08/22 15:41:00;;;;;;;5.00;4.70;;;17.20;99.90;;;;;;4916790;29;20490;-70
2021/08/22 15:43:27;;;;;;;5.43;4.97;;;17.20;99.90;;;;;;4917149;29;20545;-70
2021/08/22 15:45:55;;;;;;;5.37;4.77;;;17.30;99.90;;;;;;4916527;29;20526;-70
2021/08/22 15:48:21;;;;;;;4.40;4.10;;;17.30;99.90;;;;;;4916990;29;20891;-70
2021/08/22 15:50:48;;;;;;;4.73;4.43;;;17.30;99.90;;;;;;4916776;29;20483;-69
2021/08/22 15:53:15;;;;;;;5.17;4.77;;;17.30;99.90;;;;;;4917113;29;20883;-70
2021/08/22 15:55:42;;;;;;;4.67;4.47;;;17.30;99.90;;;;;;4916626;29;20466;-70
2021/08/22 15:58:09;;;;;;;6.27;5.50;;;17.40;99.90;;;;;;4917407;29;20471;-70
2021/08/22 16:00:37;;;;;;;4.73;4.43;;;17.50;99.90;;;;;;4915926;29;20498;-70
2021/08/22 16:03:06;;;;;;;4.40;4.20;;;17.50;99.90;;;;;;4916868;29;20521;-70
2021/08/22 16:05:33;;;;;;;5.10;4.73;;;17.40;99.90;;;;;;4920785;29;20502;-70
2021/08/22 16:07:59;;;;;;;4.97;4.63;;;17.40;99.90;;;;;;4922046;29;20554;-70
2021/08/22 16:10:26;;;;;;;6.27;4.93;;;17.30;99.90;;;;;;4919565;29;20487;-70
2021/08/22 16:12:53;;;;;;;5.90;5.57;;;17.30;99.90;;;;;;4920742;29;20481;-70
2021/08/22 16:15:21;;;;;;;5.83;5.53;;;17.30;99.90;;;;;;4921226;29;20470;-70
2021/08/22 16:17:49;;;;;;;6.70;6.20;;;17.30;99.90;;;;;;4927987;29;20474;-70
2021/08/22 16:20:17;;;;;;;6.33;5.83;;;17.30;99.90;;;;;;4928539;29;20549;-70
2021/08/22 16:22:44;;;;;;;7.50;6.13;;;17.30;99.90;;;;;;4921204;29;20470;-70
2021/08/22 16:25:12;;;;;;;6.90;6.50;;;17.20;99.90;;;;;;4917517;29;20955;-70
2021/08/22 16:27:39;;;;;;;6.97;6.30;;;17.20;99.90;;;;;;4918776;29;20562;-70
2021/08/22 16:30:07;;;;;;;6.23;5.73;;;17.10;99.90;;;;;;4917265;29;20464;-70
2021/08/22 16:32:34;;;;;;;7.50;6.80;;;17.00;99.90;;;;;;4918010;29;20482;-70
2021/08/22 16:35:01;;;;;;;7.50;6.90;;;16.90;99.90;;;;;;4917535;29;20474;-68
2021/08/22 16:37:30;;;;;;;6.00;5.60;;;16.90;99.90;;;;;;4916875;29;20546;-68
2021/08/22 16:39:56;;;;;;;8.53;6.43;;;16.90;99.90;;;;;;4916391;29;20496;-68
2021/08/22 16:42:23;;;;;;;7.00;6.50;;;16.90;99.90;;;;;;4916128;29;20494;-68
2021/08/22 16:44:50;;;;;;;6.63;6.13;;;16.90;99.90;;;;;;4916349;29;20501;-68
2021/08/22 16:47:16;;;;;;;8.20;7.57;;;16.90;99.90;;;;;;4916186;29;20529;-68
2021/08/22 16:49:43;;;;;;;6.50;6.03;;;16.90;99.90;;;;;;4916418;29;20477;-67
2021/08/22 16:52:10;;;;;;;7.33;6.77;;;16.90;99.90;;;;;;4915641;29;20979;-68
2021/08/22 16:54:38;;;;;;;6.70;6.20;;;16.90;99.90;;;;;;4915680;29;20486;-68
2021/08/22 16:57:04;;;;;;;9.10;7.43;;;16.90;99.90;;;;;;4915477;29;20521;-68
2021/08/22 16:59:31;;;;;;;7.03;6.43;;;16.80;99.90;;;;;;4915703;29;20483;-68
2021/08/22 17:01:58;;;;;;;7.27;6.23;;;16.80;99.90;;;;;;4914930;29;20534;-68
2021/08/22 17:04:24;;;;;;;7.60;7.10;;;16.70;99.90;;;;;;4915588;29;20526;-68